sensor_id;sensor_type;location;lat;lon;timestamp;temperature;humidity
45619;DHT22;31343;47.520;19.144;2022-08-19T00:00:12;26.80;84.30
45619;DHT22;31343;47.520;19.144;2022-08-19T00:02:40;26.80;84.50
45619;DHT22;31343;47.520;19.144;2022-08-19T00:05:06;26.90;84.60
45619;DHT22;31343;47.520;19.144;2022-08-19T00:07:32;26.80;85.30
45619;DHT22;31343;47.520;19.144;2022-08-19T00:09:57;26.80;85.10
45619;DHT22;31343;47.520;19.144;2022-08-19T00:12:23;26.70;85.40
45619;DHT22;31343;47.520;19.144;2022-08-19T00:14:49;26.60;85.70
45619;DHT22;31343;47.520;19.144;2022-08-19T00:17:14;26.50;85.70
45619;DHT22;31343;47.520;19.144;2022-08-19T00:19:40;26.50;85.90
45619;DHT22;31343;47.520;19.144;2022-08-19T00:22:06;26.50;86.10
45619;DHT22;31343;47.520;19.144;2022-08-19T00:24:33;26.50;86.20
45619;DHT22;31343;47.520;19.144;2022-08-19T00:26:59;26.60;86.30
45619;DHT22;31343;47.520;19.144;2022-08-19T00:29:27;26.40;86.30
45619;DHT22;31343;47.520;19.144;2022-08-19T00:31:53;26.50;86.70
45619;DHT22;31343;47.520;19.144;2022-08-19T00:34:20;26.50;87.00
45619;DHT22;31343;47.520;19.144;2022-08-19T00:36:46;26.40;87.10
45619;DHT22;31343;47.520;19.144;2022-08-19T00:39:12;26.30;87.30
45619;DHT22;31343;47.520;19.144;2022-08-19T00:41:39;26.40;87.70
45619;DHT22;31343;47.520;19.144;2022-08-19T00:44:07;26.30;88.00
45619;DHT22;31343;47.520;19.144;2022-08-19T00:46:34;26.30;87.90
45619;DHT22;31343;47.520;19.144;2022-08-19T00:49:02;26.30;88.40
45619;DHT22;31343;47.520;19.144;2022-08-19T00:51:30;26.20;88.50
45619;DHT22;31343;47.520;19.144;2022-08-19T00:53:57;26.20;88.60
45619;DHT22;31343;47.520;19.144;2022-08-19T00:56:24;26.20;88.80
45619;DHT22;31343;47.520;19.144;2022-08-19T00:58:51;26.20;88.90
45619;DHT22;31343;47.520;19.144;2022-08-19T01:01:17;26.20;88.90
45619;DHT22;31343;47.520;19.144;2022-08-19T01:03:42;26.20;89.30
45619;DHT22;31343;47.520;19.144;2022-08-19T01:06:08;26.20;89.10
45619;DHT22;31343;47.520;19.144;2022-08-19T01:08:34;26.20;89.00
45619;DHT22;31343;47.520;19.144;2022-08-19T01:10:59;26.10;89.60
45619;DHT22;31343;47.520;19.144;2022-08-19T01:13:26;26.10;89.20
45619;DHT22;31343;47.520;19.144;2022-08-19T01:16:03;26.00;89.50
45619;DHT22;31343;47.520;19.144;2022-08-19T01:18:30;26.00;90.00
45619;DHT22;31343;47.520;19.144;2022-08-19T01:20:58;26.00;90.10
45619;DHT22;31343;47.520;19.144;2022-08-19T01:23:24;26.00;90.20
45619;DHT22;31343;47.520;19.144;2022-08-19T01:26:12;26.00;90.20
45619;DHT22;31343;47.520;19.144;2022-08-19T01:28:39;25.90;90.50
45619;DHT22;31343;47.520;19.144;2022-08-19T01:31:05;25.80;90.80
45619;DHT22;31343;47.520;19.144;2022-08-19T01:33:31;25.80;91.10
45619;DHT22;31343;47.520;19.144;2022-08-19T01:36:07;25.70;91.20
45619;DHT22;31343;47.520;19.144;2022-08-19T01:38:35;25.70;91.50
45619;DHT22;31343;47.520;19.144;2022-08-19T01:41:01;25.70;91.60
45619;DHT22;31343;47.520;19.144;2022-08-19T01:43:27;25.70;91.70
45619;DHT22;31343;47.520;19.144;2022-08-19T01:45:52;25.70;91.70
45619;DHT22;31343;47.520;19.144;2022-08-19T01:48:18;25.60;91.90
45619;DHT22;31343;47.520;19.144;2022-08-19T01:50:43;25.50;92.20
45619;DHT22;31343;47.520;19.144;2022-08-19T01:53:11;25.50;92.30
45619;DHT22;31343;47.520;19.144;2022-08-19T01:55:39;25.50;92.50
45619;DHT22;31343;47.520;19.144;2022-08-19T01:58:05;25.40;92.80
45619;DHT22;31343;47.520;19.144;2022-08-19T02:00:34;25.40;92.90
45619;DHT22;31343;47.520;19.144;2022-08-19T02:02:59;25.30;93.00
45619;DHT22;31343;47.520;19.144;2022-08-19T02:05:26;25.30;93.20
45619;DHT22;31343;47.520;19.144;2022-08-19T02:07:55;25.30;93.40
45619;DHT22;31343;47.520;19.144;2022-08-19T02:10:21;25.30;93.70
45619;DHT22;31343;47.520;19.144;2022-08-19T02:12:48;25.30;93.70
45619;DHT22;31343;47.520;19.144;2022-08-19T02:15:15;25.20;93.80
45619;DHT22;31343;47.520;19.144;2022-08-19T02:17:41;25.20;93.90
45619;DHT22;31343;47.520;19.144;2022-08-19T02:20:06;25.10;94.10
45619;DHT22;31343;47.520;19.144;2022-08-19T02:22:32;25.10;94.50
45619;DHT22;31343;47.520;19.144;2022-08-19T02:24:58;25.10;94.60
45619;DHT22;31343;47.520;19.144;2022-08-19T02:27:24;25.00;94.80
45619;DHT22;31343;47.520;19.144;2022-08-19T02:29:51;25.00;94.90
45619;DHT22;31343;47.520;19.144;2022-08-19T02:32:17;25.10;94.90
45619;DHT22;31343;47.520;19.144;2022-08-19T02:34:44;24.90;94.80
45619;DHT22;31343;47.520;19.144;2022-08-19T02:37:10;24.90;95.20
45619;DHT22;31343;47.520;19.144;2022-08-19T02:39:56;24.80;95.30
45619;DHT22;31343;47.520;19.144;2022-08-19T02:42:21;24.80;95.70
45619;DHT22;31343;47.520;19.144;2022-08-19T02:44:47;24.90;95.80
45619;DHT22;31343;47.520;19.144;2022-08-19T02:47:13;24.80;95.80
45619;DHT22;31343;47.520;19.144;2022-08-19T02:49:40;24.80;96.10
45619;DHT22;31343;47.520;19.144;2022-08-19T02:52:06;24.80;96.20
45619;DHT22;31343;47.520;19.144;2022-08-19T02:54:32;24.80;96.30
45619;DHT22;31343;47.520;19.144;2022-08-19T02:56:57;24.80;96.50
45619;DHT22;31343;47.520;19.144;2022-08-19T02:59:23;24.80;96.60
45619;DHT22;31343;47.520;19.144;2022-08-19T03:01:50;24.80;96.60
45619;DHT22;31343;47.520;19.144;2022-08-19T03:04:16;24.80;96.70
45619;DHT22;31343;47.520;19.144;2022-08-19T03:06:42;24.70;96.70
45619;DHT22;31343;47.520;19.144;2022-08-19T03:09:08;24.70;97.00
45619;DHT22;31343;47.520;19.144;2022-08-19T03:11:34;24.70;97.10
45619;DHT22;31343;47.520;19.144;2022-08-19T03:14:00;24.60;97.30
45619;DHT22;31343;47.520;19.144;2022-08-19T03:16:27;24.70;97.40
45619;DHT22;31343;47.520;19.144;2022-08-19T03:18:53;24.70;97.30
45619;DHT22;31343;47.520;19.144;2022-08-19T03:21:23;24.60;97.40
45619;DHT22;31343;47.520;19.144;2022-08-19T03:23:49;24.60;97.50
45619;DHT22;31343;47.520;19.144;2022-08-19T03:26:15;24.60;97.60
45619;DHT22;31343;47.520;19.144;2022-08-19T03:28:41;24.60;97.70
45619;DHT22;31343;47.520;19.144;2022-08-19T03:31:09;24.60;97.80
45619;DHT22;31343;47.520;19.144;2022-08-19T03:33:36;24.50;97.70
45619;DHT22;31343;47.520;19.144;2022-08-19T03:36:05;24.50;97.90
45619;DHT22;31343;47.520;19.144;2022-08-19T03:38:34;24.50;97.90
45619;DHT22;31343;47.520;19.144;2022-08-19T03:41:07;24.40;98.50
45619;DHT22;31343;47.520;19.144;2022-08-19T03:43:34;24.40;98.20
45619;DHT22;31343;47.520;19.144;2022-08-19T03:46:11;24.40;98.30
45619;DHT22;31343;47.520;19.144;2022-08-19T03:48:37;24.40;98.40
45619;DHT22;31343;47.520;19.144;2022-08-19T03:51:04;24.30;98.40
45619;DHT22;31343;47.520;19.144;2022-08-19T03:53:30;24.30;98.90
45619;DHT22;31343;47.520;19.144;2022-08-19T03:55:56;24.30;99.00
45619;DHT22;31343;47.520;19.144;2022-08-19T03:58:23;24.30;99.00
45619;DHT22;31343;47.520;19.144;2022-08-19T04:00:49;24.30;98.90
45619;DHT22;31343;47.520;19.144;2022-08-19T04:03:14;24.40;99.00
45619;DHT22;31343;47.520;19.144;2022-08-19T04:05:40;24.40;99.00
45619;DHT22;31343;47.520;19.144;2022-08-19T04:08:06;24.30;99.00
45619;DHT22;31343;47.520;19.144;2022-08-19T04:10:40;24.30;99.20
45619;DHT22;31343;47.520;19.144;2022-08-19T04:13:06;24.30;99.20
45619;DHT22;31343;47.520;19.144;2022-08-19T04:15:38;24.40;99.20
45619;DHT22;31343;47.520;19.144;2022-08-19T04:18:07;24.40;99.30
45619;DHT22;31343;47.520;19.144;2022-08-19T04:20:44;24.30;99.40
45619;DHT22;31343;47.520;19.144;2022-08-19T04:23:11;24.40;99.50
45619;DHT22;31343;47.520;19.144;2022-08-19T04:25:38;24.50;99.30
45619;DHT22;31343;47.520;19.144;2022-08-19T04:28:04;24.60;99.20
45619;DHT22;31343;47.520;19.144;2022-08-19T04:30:36;24.60;99.30
45619;DHT22;31343;47.520;19.144;2022-08-19T04:33:02;24.70;99.30
45619;DHT22;31343;47.520;19.144;2022-08-19T04:35:34;24.70;99.00
45619;DHT22;31343;47.520;19.144;2022-08-19T04:38:00;24.80;98.70
45619;DHT22;31343;47.520;19.144;2022-08-19T04:40:25;24.80;98.60
45619;DHT22;31343;47.520;19.144;2022-08-19T04:43:10;24.90;98.40
45619;DHT22;31343;47.520;19.144;2022-08-19T04:45:37;25.00;98.20
45619;DHT22;31343;47.520;19.144;2022-08-19T04:48:03;25.00;98.50
45619;DHT22;31343;47.520;19.144;2022-08-19T04:50:29;25.10;98.30
45619;DHT22;31343;47.520;19.144;2022-08-19T04:52:54;25.30;98.30
45619;DHT22;31343;47.520;19.144;2022-08-19T04:55:20;25.30;98.00
45619;DHT22;31343;47.520;19.144;2022-08-19T04:57:46;25.40;98.00
45619;DHT22;31343;47.520;19.144;2022-08-19T05:00:12;25.50;97.80
45619;DHT22;31343;47.520;19.144;2022-08-19T05:02:37;25.50;97.90
45619;DHT22;31343;47.520;19.144;2022-08-19T05:05:03;25.70;97.70
45619;DHT22;31343;47.520;19.144;2022-08-19T05:07:29;25.90;97.40
45619;DHT22;31343;47.520;19.144;2022-08-19T05:09:54;26.10;97.00
45619;DHT22;31343;47.520;19.144;2022-08-19T05:12:20;26.20;96.70
45619;DHT22;31343;47.520;19.144;2022-08-19T05:14:46;26.30;96.70
45619;DHT22;31343;47.520;19.144;2022-08-19T05:17:12;26.40;96.40
45619;DHT22;31343;47.520;19.144;2022-08-19T05:19:38;26.70;96.00
45619;DHT22;31343;47.520;19.144;2022-08-19T05:22:22;26.90;95.60
45619;DHT22;31343;47.520;19.144;2022-08-19T05:24:58;27.10;95.20
45619;DHT22;31343;47.520;19.144;2022-08-19T05:27:24;27.30;94.90
45619;DHT22;31343;47.520;19.144;2022-08-19T05:29:49;27.40;94.50
45619;DHT22;31343;47.520;19.144;2022-08-19T05:32:15;27.60;94.30
45619;DHT22;31343;47.520;19.144;2022-08-19T05:34:41;27.70;94.00
45619;DHT22;31343;47.520;19.144;2022-08-19T05:37:07;28.00;93.70
45619;DHT22;31343;47.520;19.144;2022-08-19T05:39:34;28.30;93.30
45619;DHT22;31343;47.520;19.144;2022-08-19T05:42:00;28.50;92.90
45619;DHT22;31343;47.520;19.144;2022-08-19T05:44:28;28.80;92.30
45619;DHT22;31343;47.520;19.144;2022-08-19T05:46:57;29.00;91.60
45619;DHT22;31343;47.520;19.144;2022-08-19T05:49:23;29.20;91.40
45619;DHT22;31343;47.520;19.144;2022-08-19T05:51:50;29.70;91.00
45619;DHT22;31343;47.520;19.144;2022-08-19T05:54:16;30.00;90.10
45619;DHT22;31343;47.520;19.144;2022-08-19T05:56:42;30.50;89.50
45619;DHT22;31343;47.520;19.144;2022-08-19T05:59:09;30.90;88.20
45619;DHT22;31343;47.520;19.144;2022-08-19T06:01:37;30.90;85.80
45619;DHT22;31343;47.520;19.144;2022-08-19T06:04:03;30.50;85.40
45619;DHT22;31343;47.520;19.144;2022-08-19T06:06:29;30.90;86.20
45619;DHT22;31343;47.520;19.144;2022-08-19T06:08:54;31.30;84.90
45619;DHT22;31343;47.520;19.144;2022-08-19T06:14:05;31.80;83.40
45619;DHT22;31343;47.520;19.144;2022-08-19T06:16:33;32.20;82.00
45619;DHT22;31343;47.520;19.144;2022-08-19T06:19:01;32.10;81.30
45619;DHT22;31343;47.520;19.144;2022-08-19T06:21:27;32.20;81.40
45619;DHT22;31343;47.520;19.144;2022-08-19T06:23:54;32.60;80.90
45619;DHT22;31343;47.520;19.144;2022-08-19T06:26:20;32.50;78.50
45619;DHT22;31343;47.520;19.144;2022-08-19T06:28:47;32.50;79.00
45619;DHT22;31343;47.520;19.144;2022-08-19T06:31:16;32.70;78.20
45619;DHT22;31343;47.520;19.144;2022-08-19T06:33:43;33.40;78.30
45619;DHT22;31343;47.520;19.144;2022-08-19T06:36:19;32.90;77.40
45619;DHT22;31343;47.520;19.144;2022-08-19T06:38:44;33.60;77.40
45619;DHT22;31343;47.520;19.144;2022-08-19T06:41:10;34.30;76.80
45619;DHT22;31343;47.520;19.144;2022-08-19T06:43:36;34.20;75.00
45619;DHT22;31343;47.520;19.144;2022-08-19T06:46:02;34.70;74.20
45619;DHT22;31343;47.520;19.144;2022-08-19T06:48:29;35.40;73.80
45619;DHT22;31343;47.520;19.144;2022-08-19T06:50:54;35.60;73.20
45619;DHT22;31343;47.520;19.144;2022-08-19T06:53:21;36.40;71.60
45619;DHT22;31343;47.520;19.144;2022-08-19T06:55:46;36.30;70.10
45619;DHT22;31343;47.520;19.144;2022-08-19T06:58:12;36.50;70.20
45619;DHT22;31343;47.520;19.144;2022-08-19T07:00:39;37.00;69.80
45619;DHT22;31343;47.520;19.144;2022-08-19T07:03:04;36.70;68.70
45619;DHT22;31343;47.520;19.144;2022-08-19T07:05:30;35.20;68.30
45619;DHT22;31343;47.520;19.144;2022-08-19T07:07:56;35.10;70.70
45619;DHT22;31343;47.520;19.144;2022-08-19T07:10:23;35.80;70.50
45619;DHT22;31343;47.520;19.144;2022-08-19T07:12:50;36.20;69.80
45619;DHT22;31343;47.520;19.144;2022-08-19T07:15:16;36.60;68.80
45619;DHT22;31343;47.520;19.144;2022-08-19T07:17:41;36.80;67.30
45619;DHT22;31343;47.520;19.144;2022-08-19T07:20:09;36.70;68.00
45619;DHT22;31343;47.520;19.144;2022-08-19T07:22:35;37.40;68.30
45619;DHT22;31343;47.520;19.144;2022-08-19T07:25:02;37.90;66.70
45619;DHT22;31343;47.520;19.144;2022-08-19T07:27:29;38.40;66.20
45619;DHT22;31343;47.520;19.144;2022-08-19T07:29:54;38.20;64.20
45619;DHT22;31343;47.520;19.144;2022-08-19T07:32:20;38.30;65.20
45619;DHT22;31343;47.520;19.144;2022-08-19T07:34:46;38.50;63.80
45619;DHT22;31343;47.520;19.144;2022-08-19T07:37:11;37.50;63.30
45619;DHT22;31343;47.520;19.144;2022-08-19T07:39:37;37.30;64.50
45619;DHT22;31343;47.520;19.144;2022-08-19T07:42:04;38.20;65.40
45619;DHT22;31343;47.520;19.144;2022-08-19T07:44:32;38.60;64.10
45619;DHT22;31343;47.520;19.144;2022-08-19T07:46:59;38.70;63.90
45619;DHT22;31343;47.520;19.144;2022-08-19T07:49:25;39.00;62.60
45619;DHT22;31343;47.520;19.144;2022-08-19T07:51:52;38.70;63.00
45619;DHT22;31343;47.520;19.144;2022-08-19T07:54:19;38.70;62.80
45619;DHT22;31343;47.520;19.144;2022-08-19T07:56:46;37.20;62.70
45619;DHT22;31343;47.520;19.144;2022-08-19T07:59:11;35.50;64.80
45619;DHT22;31343;47.520;19.144;2022-08-19T08:01:37;35.50;66.10
45619;DHT22;31343;47.520;19.144;2022-08-19T08:04:05;35.10;65.50
45619;DHT22;31343;47.520;19.144;2022-08-19T08:06:49;35.20;65.80
45619;DHT22;31343;47.520;19.144;2022-08-19T08:09:35;35.20;66.30
45619;DHT22;31343;47.520;19.144;2022-08-19T08:12:03;35.00;66.70
45619;DHT22;31343;47.520;19.144;2022-08-19T08:14:30;34.50;66.40
45619;DHT22;31343;47.520;19.144;2022-08-19T08:16:56;34.60;66.50
45619;DHT22;31343;47.520;19.144;2022-08-19T08:19:23;34.90;66.40
45619;DHT22;31343;47.520;19.144;2022-08-19T08:21:49;34.50;65.40
45619;DHT22;31343;47.520;19.144;2022-08-19T08:24:15;34.50;66.20
45619;DHT22;31343;47.520;19.144;2022-08-19T08:26:41;34.30;66.30
45619;DHT22;31343;47.520;19.144;2022-08-19T08:29:07;34.10;66.90
45619;DHT22;31343;47.520;19.144;2022-08-19T08:31:36;33.80;66.90
45619;DHT22;31343;47.520;19.144;2022-08-19T08:34:02;33.80;67.10
45619;DHT22;31343;47.520;19.144;2022-08-19T08:36:28;33.50;66.40
45619;DHT22;31343;47.520;19.144;2022-08-19T08:38:54;33.80;66.60
45619;DHT22;31343;47.520;19.144;2022-08-19T08:41:22;33.70;66.50
45619;DHT22;31343;47.520;19.144;2022-08-19T08:43:53;33.40;67.80
45619;DHT22;31343;47.520;19.144;2022-08-19T08:51:40;34.10;66.60
45619;DHT22;31343;47.520;19.144;2022-08-19T08:54:10;34.30;66.40
45619;DHT22;31343;47.520;19.144;2022-08-19T08:56:37;34.10;66.40
45619;DHT22;31343;47.520;19.144;2022-08-19T08:59:16;34.50;65.70
45619;DHT22;31343;47.520;19.144;2022-08-19T09:01:44;34.20;65.70
45619;DHT22;31343;47.520;19.144;2022-08-19T09:04:10;34.60;66.10
45619;DHT22;31343;47.520;19.144;2022-08-19T09:06:49;34.30;66.80
45619;DHT22;31343;47.520;19.144;2022-08-19T09:09:18;34.50;66.00
45619;DHT22;31343;47.520;19.144;2022-08-19T09:16:36;34.50;66.00
45619;DHT22;31343;47.520;19.144;2022-08-19T09:19:04;34.30;65.20
45619;DHT22;31343;47.520;19.144;2022-08-19T09:21:30;34.20;66.40
45619;DHT22;31343;47.520;19.144;2022-08-19T09:23:56;34.20;66.00
45619;DHT22;31343;47.520;19.144;2022-08-19T09:26:23;34.50;66.20
45619;DHT22;31343;47.520;19.144;2022-08-19T09:28:49;34.30;65.40
45619;DHT22;31343;47.520;19.144;2022-08-19T09:31:17;34.20;66.30
45619;DHT22;31343;47.520;19.144;2022-08-19T09:33:43;34.50;65.50
45619;DHT22;31343;47.520;19.144;2022-08-19T09:36:10;34.70;65.10
45619;DHT22;31343;47.520;19.144;2022-08-19T09:38:36;34.70;64.30
45619;DHT22;31343;47.520;19.144;2022-08-19T09:41:02;34.70;64.10
45619;DHT22;31343;47.520;19.144;2022-08-19T09:43:30;34.70;64.90
45619;DHT22;31343;47.520;19.144;2022-08-19T09:45:56;34.80;63.30
45619;DHT22;31343;47.520;19.144;2022-08-19T09:48:22;34.60;63.40
45619;DHT22;31343;47.520;19.144;2022-08-19T09:50:47;34.40;64.10
45619;DHT22;31343;47.520;19.144;2022-08-19T09:53:13;34.30;64.20
45619;DHT22;31343;47.520;19.144;2022-08-19T09:55:42;34.30;64.10
45619;DHT22;31343;47.520;19.144;2022-08-19T09:58:08;34.50;64.30
45619;DHT22;31343;47.520;19.144;2022-08-19T10:00:34;34.60;64.50
45619;DHT22;31343;47.520;19.144;2022-08-19T10:03:02;34.80;64.20
45619;DHT22;31343;47.520;19.144;2022-08-19T10:05:27;34.80;63.50
45619;DHT22;31343;47.520;19.144;2022-08-19T10:08:11;34.90;64.20
45619;DHT22;31343;47.520;19.144;2022-08-19T10:10:37;34.80;63.60
45619;DHT22;31343;47.520;19.144;2022-08-19T10:13:03;34.80;64.00
45619;DHT22;31343;47.520;19.144;2022-08-19T10:15:29;35.00;64.00
45619;DHT22;31343;47.520;19.144;2022-08-19T10:17:54;34.70;64.00
45619;DHT22;31343;47.520;19.144;2022-08-19T10:20:20;34.90;64.20
45619;DHT22;31343;47.520;19.144;2022-08-19T10:22:47;35.10;63.80
45619;DHT22;31343;47.520;19.144;2022-08-19T10:25:12;35.20;63.70
45619;DHT22;31343;47.520;19.144;2022-08-19T10:27:42;35.40;63.20
45619;DHT22;31343;47.520;19.144;2022-08-19T10:30:08;35.00;63.00
45619;DHT22;31343;47.520;19.144;2022-08-19T10:32:35;35.20;63.20
45619;DHT22;31343;47.520;19.144;2022-08-19T10:35:01;35.40;63.70
45619;DHT22;31343;47.520;19.144;2022-08-19T10:37:27;35.60;62.70
45619;DHT22;31343;47.520;19.144;2022-08-19T10:39:52;35.70;62.90
45619;DHT22;31343;47.520;19.144;2022-08-19T10:42:18;35.50;61.40
45619;DHT22;31343;47.520;19.144;2022-08-19T10:44:44;35.50;62.50
45619;DHT22;31343;47.520;19.144;2022-08-19T10:47:10;35.50;61.90
45619;DHT22;31343;47.520;19.144;2022-08-19T10:49:36;35.70;62.40
45619;DHT22;31343;47.520;19.144;2022-08-19T10:52:24;35.80;62.30
45619;DHT22;31343;47.520;19.144;2022-08-19T10:54:59;36.00;62.60
45619;DHT22;31343;47.520;19.144;2022-08-19T10:57:43;36.10;61.80
45619;DHT22;31343;47.520;19.144;2022-08-19T11:00:09;36.30;61.60
45619;DHT22;31343;47.520;19.144;2022-08-19T11:02:35;36.60;61.00
45619;DHT22;31343;47.520;19.144;2022-08-19T11:05:00;36.50;60.70
45619;DHT22;31343;47.520;19.144;2022-08-19T11:07:26;36.60;60.70
45619;DHT22;31343;47.520;19.144;2022-08-19T11:09:52;36.80;60.60
45619;DHT22;31343;47.520;19.144;2022-08-19T11:12:17;37.10;60.40
45619;DHT22;31343;47.520;19.144;2022-08-19T11:14:44;37.00;59.80
45619;DHT22;31343;47.520;19.144;2022-08-19T11:17:10;37.00;59.90
45619;DHT22;31343;47.520;19.144;2022-08-19T11:19:38;37.60;59.80
45619;DHT22;31343;47.520;19.144;2022-08-19T11:22:06;38.00;58.40
45619;DHT22;31343;47.520;19.144;2022-08-19T11:24:33;38.20;58.30
45619;DHT22;31343;47.520;19.144;2022-08-19T11:27:07;38.30;57.80
45619;DHT22;31343;47.520;19.144;2022-08-19T11:29:34;38.40;57.60
45619;DHT22;31343;47.520;19.144;2022-08-19T11:32:03;38.60;57.40
45619;DHT22;31343;47.520;19.144;2022-08-19T11:34:29;38.60;57.90
45619;DHT22;31343;47.520;19.144;2022-08-19T11:36:56;38.90;57.80
45619;DHT22;31343;47.520;19.144;2022-08-19T11:39:26;39.30;56.70
45619;DHT22;31343;47.520;19.144;2022-08-19T11:41:52;39.30;56.40
45619;DHT22;31343;47.520;19.144;2022-08-19T11:44:17;39.10;57.00
45619;DHT22;31343;47.520;19.144;2022-08-19T11:46:43;39.50;56.10
45619;DHT22;31343;47.520;19.144;2022-08-19T11:49:11;39.70;55.30
45619;DHT22;31343;47.520;19.144;2022-08-19T11:51:37;39.90;56.00
45619;DHT22;31343;47.520;19.144;2022-08-19T11:54:04;40.30;54.80
45619;DHT22;31343;47.520;19.144;2022-08-19T11:56:29;39.80;55.00
45619;DHT22;31343;47.520;19.144;2022-08-19T11:58:55;40.40;55.10
45619;DHT22;31343;47.520;19.144;2022-08-19T12:01:23;39.40;55.40
45619;DHT22;31343;47.520;19.144;2022-08-19T12:03:49;39.70;55.50
45619;DHT22;31343;47.520;19.144;2022-08-19T12:06:16;40.20;54.00
45619;DHT22;31343;47.520;19.144;2022-08-19T12:08:43;39.90;54.90
45619;DHT22;31343;47.520;19.144;2022-08-19T12:11:09;40.40;54.10
45619;DHT22;31343;47.520;19.144;2022-08-19T12:13:35;41.10;54.00
45619;DHT22;31343;47.520;19.144;2022-08-19T12:16:06;41.50;53.50
45619;DHT22;31343;47.520;19.144;2022-08-19T12:18:32;40.40;53.40
45619;DHT22;31343;47.520;19.144;2022-08-19T12:20:58;40.40;53.00
45619;DHT22;31343;47.520;19.144;2022-08-19T12:23:25;40.30;53.30
45619;DHT22;31343;47.520;19.144;2022-08-19T12:25:51;39.80;52.80
45619;DHT22;31343;47.520;19.144;2022-08-19T12:28:18;39.80;53.50
45619;DHT22;31343;47.520;19.144;2022-08-19T12:30:44;40.40;53.50
45619;DHT22;31343;47.520;19.144;2022-08-19T12:33:09;39.80;53.90
45619;DHT22;31343;47.520;19.144;2022-08-19T12:35:35;39.80;53.90
45619;DHT22;31343;47.520;19.144;2022-08-19T12:38:01;39.30;54.00
45619;DHT22;31343;47.520;19.144;2022-08-19T12:40:29;39.10;54.40
45619;DHT22;31343;47.520;19.144;2022-08-19T12:42:54;39.20;54.10
45619;DHT22;31343;47.520;19.144;2022-08-19T12:45:20;38.50;54.40
45619;DHT22;31343;47.520;19.144;2022-08-19T12:47:46;38.40;54.20
45619;DHT22;31343;47.520;19.144;2022-08-19T12:50:12;38.90;54.50
45619;DHT22;31343;47.520;19.144;2022-08-19T12:52:37;39.20;54.20
45619;DHT22;31343;47.520;19.144;2022-08-19T12:55:04;38.70;54.40
45619;DHT22;31343;47.520;19.144;2022-08-19T12:57:30;38.90;54.70
45619;DHT22;31343;47.520;19.144;2022-08-19T12:59:59;39.40;55.20
45619;DHT22;31343;47.520;19.144;2022-08-19T13:02:25;40.00;53.80
45619;DHT22;31343;47.520;19.144;2022-08-19T13:04:51;40.10;53.20
45619;DHT22;31343;47.520;19.144;2022-08-19T13:07:17;39.10;53.30
45619;DHT22;31343;47.520;19.144;2022-08-19T13:09:42;39.10;54.00
45619;DHT22;31343;47.520;19.144;2022-08-19T13:12:08;39.10;53.30
45619;DHT22;31343;47.520;19.144;2022-08-19T13:14:38;39.20;54.20
45619;DHT22;31343;47.520;19.144;2022-08-19T13:17:05;39.10;54.20
45619;DHT22;31343;47.520;19.144;2022-08-19T13:19:31;38.70;54.30
45619;DHT22;31343;47.520;19.144;2022-08-19T13:21:57;38.30;54.60
45619;DHT22;31343;47.520;19.144;2022-08-19T13:24:23;37.80;54.90
45619;DHT22;31343;47.520;19.144;2022-08-19T13:26:48;37.70;54.90
45619;DHT22;31343;47.520;19.144;2022-08-19T13:29:14;37.70;55.20
45619;DHT22;31343;47.520;19.144;2022-08-19T13:31:58;37.60;55.30
45619;DHT22;31343;47.520;19.144;2022-08-19T13:34:42;37.40;55.60
45619;DHT22;31343;47.520;19.144;2022-08-19T13:37:08;37.40;55.80
45619;DHT22;31343;47.520;19.144;2022-08-19T13:39:34;37.60;55.90
45619;DHT22;31343;47.520;19.144;2022-08-19T13:42:00;37.70;56.00
45619;DHT22;31343;47.520;19.144;2022-08-19T13:44:27;37.60;54.30
45619;DHT22;31343;47.520;19.144;2022-08-19T13:46:55;37.40;54.80
45619;DHT22;31343;47.520;19.144;2022-08-19T13:49:25;37.20;55.00
45619;DHT22;31343;47.520;19.144;2022-08-19T13:51:50;37.00;54.80
45619;DHT22;31343;47.520;19.144;2022-08-19T13:54:16;36.80;55.30
45619;DHT22;31343;47.520;19.144;2022-08-19T13:56:43;36.70;56.00
45619;DHT22;31343;47.520;19.144;2022-08-19T13:59:09;36.70;55.60
45619;DHT22;31343;47.520;19.144;2022-08-19T14:01:34;36.80;55.60
45619;DHT22;31343;47.520;19.144;2022-08-19T14:04:00;36.90;55.70
45619;DHT22;31343;47.520;19.144;2022-08-19T14:06:26;36.80;55.40
45619;DHT22;31343;47.520;19.144;2022-08-19T14:08:51;36.60;55.70
45619;DHT22;31343;47.520;19.144;2022-08-19T14:11:18;36.60;55.90
45619;DHT22;31343;47.520;19.144;2022-08-19T14:13:43;36.60;55.60
45619;DHT22;31343;47.520;19.144;2022-08-19T14:16:10;36.50;56.00
45619;DHT22;31343;47.520;19.144;2022-08-19T14:18:36;36.60;55.60
45619;DHT22;31343;47.520;19.144;2022-08-19T14:21:03;36.60;55.70
45619;DHT22;31343;47.520;19.144;2022-08-19T14:23:30;36.40;59.30
45619;DHT22;31343;47.520;19.144;2022-08-19T14:26:29;36.00;60.80
45619;DHT22;31343;47.520;19.144;2022-08-19T14:28:47;36.00;61.60
45619;DHT22;31343;47.520;19.144;2022-08-19T14:31:15;36.00;62.50
45619;DHT22;31343;47.520;19.144;2022-08-19T14:33:44;35.90;63.20
45619;DHT22;31343;47.520;19.144;2022-08-19T14:36:10;35.70;62.90
45619;DHT22;31343;47.520;19.144;2022-08-19T14:38:36;35.50;63.40
45619;DHT22;31343;47.520;19.144;2022-08-19T14:41:21;35.50;64.40
45619;DHT22;31343;47.520;19.144;2022-08-19T14:43:47;35.40;63.70
45619;DHT22;31343;47.520;19.144;2022-08-19T14:46:14;35.30;64.30
45619;DHT22;31343;47.520;19.144;2022-08-19T14:48:41;34.90;64.30
45619;DHT22;31343;47.520;19.144;2022-08-19T14:51:06;34.80;64.70
45619;DHT22;31343;47.520;19.144;2022-08-19T14:53:32;34.70;64.40
45619;DHT22;31343;47.520;19.144;2022-08-19T14:56:01;34.50;64.90
45619;DHT22;31343;47.520;19.144;2022-08-19T14:58:27;34.30;65.40
45619;DHT22;31343;47.520;19.144;2022-08-19T15:00:52;34.10;65.20
45619;DHT22;31343;47.520;19.144;2022-08-19T15:03:18;33.80;65.50
45619;DHT22;31343;47.520;19.144;2022-08-19T15:05:43;33.70;65.50
45619;DHT22;31343;47.520;19.144;2022-08-19T15:08:09;33.50;66.00
45619;DHT22;31343;47.520;19.144;2022-08-19T15:10:35;33.50;66.30
45619;DHT22;31343;47.520;19.144;2022-08-19T15:13:03;33.50;66.40
45619;DHT22;31343;47.520;19.144;2022-08-19T15:15:28;33.40;65.80
45619;DHT22;31343;47.520;19.144;2022-08-19T15:17:54;33.10;64.30
45619;DHT22;31343;47.520;19.144;2022-08-19T15:20:20;33.20;63.80
45619;DHT22;31343;47.520;19.144;2022-08-19T15:22:48;33.10;63.90
45619;DHT22;31343;47.520;19.144;2022-08-19T15:25:15;33.00;63.70
45619;DHT22;31343;47.520;19.144;2022-08-19T15:27:41;33.00;64.50